createdAt,value
2022-12-20T00:01:17.634Z,25.77
2022-12-20T00:03:44.918Z,24.70
2022-12-20T00:06:12.890Z,21.23
2022-12-20T00:08:40.102Z,21.90
2022-12-20T00:11:07.593Z,21.03
2022-12-20T00:13:34.873Z,23.87
2022-12-20T00:16:09.535Z,23.23
2022-12-20T00:18:37.412Z,23.67
2022-12-20T00:21:05.734Z,23.23
2022-12-20T00:23:33.193Z,26.40
2022-12-20T00:26:14.069Z,19.37
2022-12-20T00:28:41.809Z,26.20
2022-12-20T00:31:10.890Z,21.27
2022-12-20T00:33:38.311Z,22.97
2022-12-20T00:36:06.064Z,22.27
2022-12-20T00:38:33.995Z,22.50
2022-12-20T00:41:08.773Z,23.30
2022-12-20T00:43:36.737Z,23.43
2022-12-20T00:46:04.152Z,22.03
2022-12-20T00:48:31.530Z,22.47
2022-12-20T00:50:59.897Z,25.27
2022-12-20T00:53:27.287Z,26.90
2022-12-20T00:55:54.678Z,25.63
2022-12-20T00:58:21.840Z,24.60
2022-12-20T01:00:54.067Z,25.87
2022-12-20T01:03:23.631Z,22.57
2022-12-20T01:05:59.718Z,25.00
2022-12-20T01:08:28.031Z,24.93
2022-12-20T01:11:05.236Z,23.33
2022-12-20T01:13:32.602Z,23.20
2022-12-20T01:16:38.844Z,22.73
2022-12-20T01:19:06.702Z,25.37
2022-12-20T01:21:34.036Z,24.67
2022-12-20T01:24:01.479Z,24.60
2022-12-20T01:26:29.384Z,24.33
2022-12-20T01:28:59.816Z,24.03
2022-12-20T01:31:27.477Z,24.50
2022-12-20T01:33:54.936Z,27.10
2022-12-20T01:36:27.729Z,25.67
2022-12-20T01:38:59.311Z,21.47
2022-12-20T01:41:26.977Z,23.57
2022-12-20T01:43:55.661Z,24.37
2022-12-20T01:46:24.847Z,25.43
2022-12-20T01:49:19.055Z,21.57
2022-12-20T01:51:51.064Z,19.97
2022-12-20T01:54:21.493Z,23.50
2022-12-20T01:56:53.079Z,22.23
2022-12-20T01:59:20.197Z,22.20
2022-12-20T02:01:47.723Z,25.83
2022-12-20T02:04:15.091Z,24.40
2022-12-20T02:06:42.339Z,25.33
2022-12-20T02:09:09.594Z,24.00
2022-12-20T02:11:55.212Z,22.53
2022-12-20T02:14:34.301Z,22.63
2022-12-20T02:17:09.039Z,23.57
2022-12-20T02:19:57.756Z,26.03
2022-12-20T02:22:30.209Z,21.30
2022-12-20T02:25:15.184Z,23.13
2022-12-20T02:28:03.819Z,20.53
2022-12-20T02:30:35.823Z,21.87
2022-12-20T02:33:04.515Z,22.00
2022-12-20T02:35:33.519Z,23.13
2022-12-20T02:38:02.709Z,24.37
2022-12-20T02:40:40.327Z,18.97
2022-12-20T02:43:28.265Z,18.50
2022-12-20T02:45:56.300Z,21.53
2022-12-20T02:48:23.488Z,20.67
2022-12-20T02:50:51.895Z,23.57
2022-12-20T02:53:19.685Z,20.03
2022-12-20T02:55:53.305Z,21.33
2022-12-20T02:58:45.200Z,20.30
2022-12-20T03:01:14.843Z,21.27
2022-12-20T03:03:42.130Z,21.37
2022-12-20T03:06:09.625Z,21.63
2022-12-20T03:08:37.062Z,20.70
2022-12-20T03:11:04.310Z,20.70
2022-12-20T03:13:31.498Z,21.67
2022-12-20T03:15:58.737Z,21.50
2022-12-20T03:18:25.917Z,22.67
2022-12-20T03:20:53.170Z,19.33
2022-12-20T03:23:22.226Z,23.93
2022-12-20T03:25:49.465Z,18.27
2022-12-20T03:28:16.915Z,21.07
2022-12-20T03:30:44.180Z,22.13
2022-12-20T03:33:11.394Z,24.53
2022-12-20T03:35:38.564Z,23.27
2022-12-20T03:38:05.732Z,19.20
2022-12-20T03:40:32.818Z,18.57
2022-12-20T03:43:00.198Z,18.00
2022-12-20T03:45:27.338Z,25.67
2022-12-20T03:47:54.563Z,24.07
2022-12-20T03:50:21.740Z,22.87
2022-12-20T03:52:48.963Z,21.33
2022-12-20T03:55:16.140Z,22.40
2022-12-20T03:57:43.251Z,25.83
2022-12-20T04:00:12.635Z,24.07
2022-12-20T04:02:40.053Z,23.47
2022-12-20T04:05:07.965Z,20.67
2022-12-20T04:07:35.272Z,23.17
2022-12-20T04:10:02.475Z,23.67
2022-12-20T04:12:29.865Z,24.97
2022-12-20T04:14:57.031Z,23.67
2022-12-20T04:17:24.280Z,22.80
2022-12-20T04:19:51.493Z,24.93
2022-12-20T04:22:18.600Z,23.67
2022-12-20T04:24:45.765Z,23.90
2022-12-20T04:27:12.990Z,22.53
2022-12-20T04:29:40.344Z,21.40
2022-12-20T04:32:07.443Z,23.63
2022-12-20T04:34:34.636Z,21.37
2022-12-20T04:37:01.877Z,25.07
2022-12-20T04:39:29.032Z,23.20
2022-12-20T04:41:56.312Z,21.80
2022-12-20T04:44:23.703Z,20.90
2022-12-20T04:46:52.938Z,19.23
2022-12-20T04:49:20.326Z,22.13
2022-12-20T04:51:47.549Z,20.40
2022-12-20T04:54:14.820Z,22.23
2022-12-20T04:56:41.972Z,20.70
2022-12-20T04:59:09.273Z,23.93
2022-12-20T05:01:36.353Z,18.43
2022-12-20T05:04:03.674Z,23.30
2022-12-20T05:06:31.011Z,22.87
2022-12-20T05:08:58.685Z,22.23
2022-12-20T05:11:25.824Z,27.67
2022-12-20T05:13:53.011Z,30.60
2022-12-20T05:16:20.239Z,24.77
2022-12-20T05:18:49.489Z,23.33
2022-12-20T05:21:35.706Z,21.60
2022-12-20T05:24:21.521Z,21.53
2022-12-20T05:26:48.635Z,20.97
2022-12-20T05:29:17.050Z,24.60
2022-12-20T05:31:44.371Z,22.37
2022-12-20T05:34:11.457Z,24.40
2022-12-20T05:36:38.761Z,73.23
2022-12-20T05:39:06.357Z,33.20
2022-12-20T05:41:33.670Z,25.10
2022-12-20T05:44:01.006Z,21.67
2022-12-20T05:46:28.235Z,17.83
2022-12-20T05:48:55.242Z,20.10
2022-12-20T05:51:22.525Z,23.33
2022-12-20T05:53:49.548Z,18.27
2022-12-20T05:56:16.758Z,17.77
2022-12-20T05:58:44.696Z,18.07
2022-12-20T06:01:12.011Z,27.77
2022-12-20T06:03:40.873Z,46.57
2022-12-20T06:06:13.862Z,33.50
2022-12-20T06:08:41.679Z,24.33
2022-12-20T06:11:08.907Z,24.67
2022-12-20T06:13:36.059Z,25.80
2022-12-20T06:16:03.472Z,73.53
2022-12-20T06:18:30.962Z,29.77
2022-12-20T06:20:57.934Z,22.20
2022-12-20T06:23:25.034Z,22.87
2022-12-20T06:25:52.611Z,19.17
2022-12-20T06:28:22.305Z,18.80
2022-12-20T06:30:56.164Z,17.70
2022-12-20T06:33:23.661Z,20.43
2022-12-20T06:35:50.847Z,23.73
2022-12-20T06:38:18.542Z,25.07
2022-12-20T06:40:45.629Z,22.83
2022-12-20T06:43:12.595Z,31.87
2022-12-20T06:45:42.126Z,25.57
2022-12-20T06:48:10.288Z,28.67
2022-12-20T06:50:38.576Z,23.83
2022-12-20T06:53:05.560Z,24.57
2022-12-20T06:55:32.682Z,18.43
2022-12-20T06:57:59.645Z,21.43
2022-12-20T07:00:27.637Z,24.97
2022-12-20T07:02:55.009Z,24.23
2022-12-20T07:05:22.344Z,23.77
2022-12-20T07:07:49.686Z,24.73
2022-12-20T07:10:17.013Z,26.50
2022-12-20T07:12:48.211Z,29.33
2022-12-20T07:15:16.344Z,25.67
2022-12-20T07:17:43.621Z,25.03
2022-12-20T07:20:13.560Z,30.37
2022-12-20T07:22:41.535Z,38.87
2022-12-20T07:25:09.232Z,36.33
2022-12-20T07:27:36.325Z,29.63
2022-12-20T07:30:05.272Z,24.97
2022-12-20T07:32:32.466Z,26.37
2022-12-20T07:34:59.590Z,23.70
2022-12-20T07:37:26.697Z,25.00
2022-12-20T07:39:53.720Z,26.47
2022-12-20T07:42:20.958Z,26.83
2022-12-20T07:44:48.220Z,27.87
2022-12-20T07:47:15.244Z,24.13
2022-12-20T07:49:42.308Z,23.50
2022-12-20T07:52:09.429Z,25.70
2022-12-20T07:54:38.455Z,26.53
2022-12-20T07:57:10.058Z,27.97
2022-12-20T07:59:40.415Z,26.60
2022-12-20T08:02:09.096Z,28.83
2022-12-20T08:04:36.375Z,28.17
2022-12-20T08:07:03.822Z,28.73
2022-12-20T08:09:32.130Z,24.47
2022-12-20T08:11:59.341Z,24.13
2022-12-20T08:14:26.516Z,25.40
2022-12-20T08:16:53.632Z,30.40
2022-12-20T08:19:20.742Z,25.30
2022-12-20T08:21:48.526Z,26.63
2022-12-20T08:24:15.451Z,27.17
2022-12-20T08:26:42.677Z,27.27
2022-12-20T08:29:09.763Z,23.47
2022-12-20T08:31:45.830Z,30.53
2022-12-20T08:34:16.685Z,24.37
2022-12-20T08:36:43.931Z,29.37
2022-12-20T08:39:11.726Z,28.13
2022-12-20T08:41:38.703Z,45.37
2022-12-20T08:44:06.133Z,34.73
2022-12-20T08:46:33.327Z,31.00
2022-12-20T08:49:00.619Z,26.70
2022-12-20T08:51:27.816Z,27.57
2022-12-20T08:53:55.095Z,22.40
2022-12-20T08:56:22.197Z,25.27
2022-12-20T08:58:49.288Z,26.33
2022-12-20T09:01:18.170Z,27.70
2022-12-20T09:03:45.678Z,29.43
2022-12-20T09:06:14.961Z,29.40
2022-12-20T09:08:42.053Z,30.27
2022-12-20T09:11:17.156Z,31.27
2022-12-20T09:13:45.269Z,30.13
2022-12-20T09:16:14.073Z,28.67
2022-12-20T09:18:41.551Z,29.97
2022-12-20T09:21:08.658Z,27.77
2022-12-20T09:23:36.480Z,30.37
2022-12-20T09:26:16.394Z,25.93
2022-12-20T09:28:43.767Z,27.30
2022-12-20T09:31:19.003Z,31.60
2022-12-20T09:33:46.046Z,29.90
2022-12-20T09:36:18.155Z,33.50
2022-12-20T09:38:45.383Z,33.57
2022-12-20T09:41:39.830Z,34.63
2022-12-20T09:44:12.408Z,31.73
2022-12-20T09:46:40.462Z,33.70
2022-12-20T09:49:09.087Z,31.80
2022-12-20T09:51:55.401Z,33.57
2022-12-20T09:54:40.952Z,36.70
2022-12-20T09:57:25.925Z,30.97
2022-12-20T09:59:53.189Z,31.50
2022-12-20T10:02:55.604Z,33.47
2022-12-20T10:05:20.735Z,34.40
2022-12-20T10:07:55.171Z,32.87
2022-12-20T10:10:42.327Z,33.47
2022-12-20T10:13:47.047Z,29.97
2022-12-20T10:16:37.368Z,28.47
2022-12-20T10:19:15.881Z,39.23
2022-12-20T10:21:53.626Z,49.93
2022-12-20T10:24:25.527Z,136.63
2022-12-20T10:26:52.545Z,128.30
2022-12-20T10:29:21.360Z,83.73
2022-12-20T10:31:54.025Z,76.13
2022-12-20T10:34:21.131Z,62.33
2022-12-20T10:36:48.125Z,46.03
2022-12-20T10:39:15.138Z,34.40
2022-12-20T10:41:42.915Z,32.87
2022-12-20T10:44:27.200Z,35.77
2022-12-20T10:46:57.797Z,28.47
2022-12-20T10:49:28.806Z,25.07
2022-12-20T10:51:58.362Z,28.63
2022-12-20T10:54:42.331Z,29.67
2022-12-20T10:57:32.119Z,30.00
2022-12-20T11:00:05.640Z,32.57
2022-12-20T11:02:40.980Z,26.57
2022-12-20T11:05:12.591Z,27.93
2022-12-20T11:10:45.589Z,32.03
2022-12-20T11:13:26.224Z,29.77
2022-12-20T11:15:57.287Z,32.07
2022-12-20T11:18:51.572Z,29.30
2022-12-20T11:22:10.030Z,25.33
2022-12-20T11:24:47.549Z,31.43
2022-12-20T11:27:20.420Z,31.53
2022-12-20T11:30:04.648Z,33.03
2022-12-20T11:32:41.781Z,34.20
2022-12-20T11:35:32.808Z,37.93
2022-12-20T11:38:12.970Z,33.67
2022-12-20T11:40:51.767Z,36.20
2022-12-20T11:43:54.172Z,34.13
2022-12-20T11:46:38.502Z,33.67
2022-12-20T11:49:32.254Z,38.90
2022-12-20T11:52:02.524Z,40.27
2022-12-20T11:54:51.319Z,38.17
2022-12-20T11:57:26.912Z,43.73
2022-12-20T11:59:57.745Z,41.33
2022-12-20T12:02:44.971Z,43.47
2022-12-20T12:05:29.326Z,38.97
2022-12-20T12:08:06.133Z,40.97
2022-12-20T12:10:36.231Z,40.33
2022-12-20T12:13:17.870Z,44.27
2022-12-20T12:16:03.660Z,47.60
2022-12-20T12:18:31.873Z,42.23
2022-12-20T12:21:10.917Z,53.10
2022-12-20T12:23:46.911Z,45.13
2022-12-20T12:26:19.273Z,59.43
2022-12-20T12:28:48.714Z,49.03
2022-12-20T12:31:21.530Z,47.10
2022-12-20T12:34:03.789Z,45.13
2022-12-20T12:36:46.851Z,48.87
2022-12-20T12:39:24.401Z,46.37
2022-12-20T12:42:26.626Z,50.13
2022-12-20T12:44:55.877Z,48.10
2022-12-20T12:47:35.170Z,49.70
2022-12-20T12:50:02.476Z,48.37
2022-12-20T12:52:42.808Z,55.07
2022-12-20T12:56:07.317Z,51.57
2022-12-20T12:58:48.495Z,72.73
2022-12-20T13:01:46.711Z,53.67
2022-12-20T13:04:20.248Z,48.43
2022-12-20T13:07:24.055Z,50.67
2022-12-20T13:09:51.237Z,51.80
2022-12-20T13:12:36.942Z,50.63
2022-12-20T13:15:22.718Z,52.97
2022-12-20T13:18:22.745Z,53.47
2022-12-20T13:21:26.698Z,51.20
2022-12-20T13:24:31.941Z,54.77
2022-12-20T13:26:59.293Z,68.13
2022-12-20T13:29:27.770Z,56.87
2022-12-20T13:31:54.989Z,50.60
2022-12-20T13:34:56.925Z,55.03
2022-12-20T13:37:28.512Z,82.13
2022-12-20T13:39:55.788Z,86.17
2022-12-20T13:42:34.516Z,61.97
2022-12-20T13:45:03.153Z,50.77
2022-12-20T13:47:36.625Z,55.13
2022-12-20T13:50:30.717Z,63.10
2022-12-20T13:52:57.966Z,65.33
2022-12-20T13:55:35.658Z,60.67
2022-12-20T13:58:07.601Z,52.43
2022-12-20T14:00:36.029Z,56.63
2022-12-20T14:03:03.377Z,57.23
2022-12-20T14:05:34.940Z,51.23
2022-12-20T14:08:02.910Z,55.20
2022-12-20T14:10:31.381Z,50.90
2022-12-20T14:12:58.652Z,53.60
2022-12-20T14:15:29.859Z,49.97
2022-12-20T14:17:57.191Z,51.63
2022-12-20T14:20:25.024Z,79.13
2022-12-20T14:23:06.987Z,72.43
2022-12-20T14:25:54.734Z,55.37
2022-12-20T14:28:44.453Z,65.87
2022-12-20T14:31:30.900Z,71.87
2022-12-20T14:34:11.517Z,107.87
2022-12-20T14:36:39.805Z,84.10
2022-12-20T14:39:35.103Z,67.60
2022-12-20T14:42:20.991Z,77.77
2022-12-20T14:44:48.277Z,57.57
2022-12-20T14:47:28.119Z,52.33
2022-12-20T14:50:00.080Z,57.53
2022-12-20T14:52:36.777Z,61.70
2022-12-20T14:55:25.372Z,52.83
2022-12-20T14:57:53.768Z,57.13
2022-12-20T15:00:31.606Z,82.57
2022-12-20T15:03:01.824Z,96.57
2022-12-20T15:05:35.525Z,95.77
2022-12-20T15:08:28.459Z,75.30
2022-12-20T15:11:22.784Z,92.23
2022-12-20T15:13:52.781Z,104.70
2022-12-20T15:16:24.334Z,140.13
2022-12-20T15:18:59.232Z,79.67
2022-12-20T15:21:42.907Z,69.63
2022-12-20T15:24:14.866Z,57.40
2022-12-20T15:26:41.891Z,56.73
2022-12-20T15:29:17.312Z,58.80
2022-12-20T15:31:44.352Z,51.30
2022-12-20T15:34:15.238Z,78.43
2022-12-20T15:36:42.390Z,57.00
2022-12-20T15:39:13.061Z,69.13
2022-12-20T15:41:42.922Z,65.07
2022-12-20T15:44:21.207Z,64.07
2022-12-20T15:46:48.627Z,59.77
2022-12-20T15:49:17.187Z,58.73
2022-12-20T15:51:44.965Z,57.63
2022-12-20T15:54:36.092Z,58.03
2022-12-20T15:57:07.651Z,57.97
2022-12-20T16:02:24.213Z,53.47
2022-12-20T16:04:52.504Z,74.90
2022-12-20T16:07:19.726Z,59.63
2022-12-20T16:09:46.817Z,63.53
2022-12-20T16:12:21.967Z,59.53
2022-12-20T16:14:48.995Z,60.23
2022-12-20T16:17:16.402Z,62.67
2022-12-20T16:19:44.099Z,61.10
2022-12-20T16:22:22.456Z,55.33
2022-12-20T16:24:49.812Z,58.27
2022-12-20T16:27:16.935Z,56.77
2022-12-20T16:29:44.017Z,56.93
2022-12-20T16:32:18.623Z,57.03
2022-12-20T16:34:46.265Z,60.17
2022-12-20T16:37:13.837Z,56.50
2022-12-20T16:39:41.510Z,59.83
2022-12-20T16:42:15.933Z,63.53
2022-12-20T16:44:45.264Z,63.53
2022-12-20T16:47:13.487Z,53.07
2022-12-20T16:49:47.238Z,58.07
2022-12-20T16:52:18.382Z,63.27
2022-12-20T16:54:45.529Z,55.53
2022-12-20T16:57:12.784Z,53.23
2022-12-20T16:59:39.849Z,54.37
2022-12-20T17:02:22.570Z,63.83
2022-12-20T17:04:50.096Z,67.30
2022-12-20T17:07:17.089Z,61.17
2022-12-20T17:09:44.217Z,67.67
2022-12-20T17:12:18.309Z,57.93
2022-12-20T17:14:45.520Z,56.37
2022-12-20T17:17:12.767Z,67.10
2022-12-20T17:19:40.445Z,77.87
2022-12-20T17:24:52.106Z,63.87
2022-12-20T17:27:19.681Z,65.03
2022-12-20T17:29:46.908Z,60.80
2022-12-20T17:32:22.028Z,62.50
2022-12-20T17:34:49.301Z,71.93
2022-12-20T17:37:17.621Z,67.40
2022-12-20T17:39:44.695Z,62.37
2022-12-20T17:42:14.808Z,54.40
2022-12-20T17:44:42.031Z,57.40
2022-12-20T17:47:09.284Z,53.67
2022-12-20T17:49:36.645Z,59.17
2022-12-20T17:52:04.141Z,59.30
2022-12-20T17:54:38.997Z,59.73
2022-12-20T17:57:14.521Z,52.13
2022-12-20T17:59:42.517Z,50.73
2022-12-20T18:02:27.955Z,53.43
2022-12-20T18:04:55.414Z,49.37
2022-12-20T18:07:22.679Z,55.87
2022-12-20T18:09:50.259Z,52.63
2022-12-20T18:12:17.740Z,80.33
2022-12-20T18:14:45.287Z,97.37
2022-12-20T18:17:12.832Z,92.23
2022-12-20T18:19:41.007Z,68.60
2022-12-20T18:22:08.077Z,57.40
2022-12-20T18:24:35.326Z,51.80
2022-12-20T18:27:02.503Z,50.10
2022-12-20T18:29:30.122Z,46.00
2022-12-20T18:31:57.617Z,49.97
2022-12-20T18:34:24.972Z,47.23
2022-12-20T18:36:52.391Z,43.23
2022-12-20T18:39:19.835Z,49.97
2022-12-20T18:41:48.623Z,50.33
2022-12-20T18:44:16.184Z,46.83
2022-12-20T18:46:43.305Z,66.33
2022-12-20T18:49:10.453Z,82.87
2022-12-20T18:51:37.742Z,67.37
2022-12-20T18:54:06.190Z,51.03
2022-12-20T18:56:35.111Z,46.77
2022-12-20T18:59:10.226Z,49.10
2022-12-20T19:01:38.871Z,52.80
2022-12-20T19:04:07.590Z,45.57
2022-12-20T19:06:35.445Z,43.53
2022-12-20T19:09:03.896Z,45.10
2022-12-20T19:11:31.303Z,37.77
2022-12-20T19:13:58.634Z,46.63
2022-12-20T19:16:28.272Z,40.60
2022-12-20T19:18:55.427Z,51.60
2022-12-20T19:21:33.213Z,54.97
2022-12-20T19:24:04.016Z,52.23
2022-12-20T19:26:31.370Z,40.60
2022-12-20T19:28:58.690Z,42.00
2022-12-20T19:31:27.540Z,44.43
2022-12-20T19:33:59.791Z,45.40
2022-12-20T19:36:31.509Z,40.10
2022-12-20T19:38:59.580Z,40.23
2022-12-20T19:41:30.901Z,40.73
2022-12-20T19:43:58.201Z,35.60
2022-12-20T19:46:29.206Z,36.90
2022-12-20T19:48:57.684Z,40.00
2022-12-20T19:51:25.949Z,37.63
2022-12-20T19:53:54.002Z,40.70
2022-12-20T19:56:23.195Z,49.70
2022-12-20T19:58:50.293Z,38.10
2022-12-20T20:01:18.132Z,74.70
2022-12-20T20:03:46.143Z,35.97
2022-12-20T20:06:13.519Z,40.03
2022-12-20T20:08:40.972Z,45.43
2022-12-20T20:11:10.125Z,44.37
2022-12-20T20:13:38.017Z,37.43
2022-12-20T20:16:05.577Z,36.60
2022-12-20T20:18:36.498Z,33.83
2022-12-20T20:21:12.436Z,35.13
2022-12-20T20:23:39.637Z,36.07
2022-12-20T20:26:08.951Z,39.60
2022-12-20T20:28:43.737Z,33.10
2022-12-20T20:31:13.955Z,33.47
2022-12-20T20:33:41.423Z,36.77
2022-12-20T20:36:09.018Z,33.13
2022-12-20T20:38:36.111Z,37.33
2022-12-20T20:41:03.728Z,34.07
2022-12-20T20:43:32.638Z,30.37
2022-12-20T20:45:59.962Z,30.30
2022-12-20T20:48:27.217Z,29.23
2022-12-20T20:50:54.301Z,38.10
2022-12-20T20:53:23.493Z,34.07
2022-12-20T20:55:53.886Z,40.50
2022-12-20T20:58:21.258Z,36.27
2022-12-20T21:00:52.095Z,33.93
2022-12-20T21:03:19.607Z,32.07
2022-12-20T21:06:22.439Z,35.40
2022-12-20T21:08:34.073Z,32.77
2022-12-20T21:11:07.480Z,30.47
2022-12-20T21:13:35.084Z,30.10
2022-12-20T21:16:12.705Z,31.13
2022-12-20T21:18:40.041Z,32.27
2022-12-20T21:21:11.292Z,37.87
2022-12-20T21:23:39.535Z,37.23
2022-12-20T21:26:07.806Z,36.63
2022-12-20T21:28:35.742Z,29.33
2022-12-20T21:31:05.298Z,32.00
2022-12-20T21:33:32.584Z,30.90
2022-12-20T21:36:07.346Z,33.17
2022-12-20T21:38:34.751Z,27.57
2022-12-20T21:41:02.949Z,25.90
2022-12-20T21:43:30.532Z,29.80
2022-12-20T21:45:57.586Z,25.97
2022-12-20T21:48:24.822Z,25.23
2022-12-20T21:51:10.361Z,25.97
2022-12-20T21:53:42.181Z,27.17
2022-12-20T21:56:09.413Z,26.13
2022-12-20T21:58:36.620Z,31.73
2022-12-20T22:01:04.623Z,28.30
2022-12-20T22:03:31.887Z,30.50
2022-12-20T22:05:59.516Z,27.63
2022-12-20T22:08:27.440Z,25.37
2022-12-20T22:11:07.141Z,25.50
2022-12-20T22:13:40.815Z,26.83
2022-12-20T22:16:13.053Z,21.47
2022-12-20T22:18:40.689Z,24.53
2022-12-20T22:21:09.691Z,27.40
2022-12-20T22:23:37.662Z,26.53
2022-12-20T22:26:05.890Z,32.73
2022-12-20T22:28:34.678Z,29.20
2022-12-20T22:31:09.173Z,25.67
2022-12-20T22:33:39.513Z,26.07
2022-12-20T22:36:07.087Z,27.03
2022-12-20T22:38:34.780Z,24.47
2022-12-20T22:41:09.655Z,26.63
2022-12-20T22:43:37.744Z,36.50
2022-12-20T22:46:05.091Z,28.60
2022-12-20T22:48:32.341Z,26.80
2022-12-20T22:51:07.957Z,25.60
2022-12-20T22:53:35.432Z,27.37
2022-12-20T22:56:02.889Z,24.03
2022-12-20T22:58:30.450Z,24.03
2022-12-20T23:00:58.571Z,27.77
2022-12-20T23:03:26.503Z,26.20
2022-12-20T23:05:57.983Z,26.90
2022-12-20T23:08:25.767Z,22.77
2022-12-20T23:11:11.541Z,22.83
2022-12-20T23:13:57.623Z,23.03
2022-12-20T23:16:25.181Z,21.13
2022-12-20T23:18:56.377Z,22.73
2022-12-20T23:21:42.212Z,26.20
2022-12-20T23:24:09.517Z,25.87
2022-12-20T23:26:37.293Z,23.50
2022-12-20T23:29:06.038Z,21.20
2022-12-20T23:31:33.456Z,18.57
2022-12-20T23:34:01.930Z,21.53
2022-12-20T23:36:29.577Z,25.00
2022-12-20T23:38:57.237Z,21.97
2022-12-20T23:41:24.455Z,28.03
2022-12-20T23:43:51.527Z,20.67
2022-12-20T23:46:19.497Z,25.97
2022-12-20T23:48:46.691Z,31.07
2022-12-20T23:51:13.811Z,35.03
2022-12-20T23:53:40.848Z,32.00
2022-12-20T23:56:09.054Z,27.83
2022-12-20T23:58:36.394Z,34.50
